Time;durP1;ratioP1;P1;durP2;ratioP2;P2;SDS_P1;SDS_P2;PMS_P1;PMS_P2;Temp;Humidity;BMP_temperature;BMP_pressure;BME280_temperature;BME280_humidity;BME280_pressure;Samples;Min_cycle;Max_cycle;Signal;HPM_P1;HPM_P2
2021/04/07 00:02:17;;;;;;;8.90;3.75;;;1.00;85.00;;;;;;5113915;28;20099;-36
2021/04/07 00:04:49;;;;;;;8.57;2.88;;;0.90;85.40;;;;;;5114467;28;20020;-36
2021/04/07 00:07:14;;;;;;;8.05;3.50;;;1.00;85.50;;;;;;5114658;28;20062;-36
2021/04/07 00:09:40;;;;;;;12.43;4.80;;;0.80;86.40;;;;;;5114313;28;20448;-36
2021/04/07 00:12:06;;;;;;;16.45;5.25;;;0.80;86.80;;;;;;5114305;28;20034;-36
2021/04/07 00:14:31;;;;;;;16.88;5.80;;;0.70;87.30;;;;;;5114409;28;20023;-36
2021/04/07 00:16:57;;;;;;;18.27;6.05;;;0.70;87.80;;;;;;5114900;28;20554;-35
2021/04/07 00:19:23;;;;;;;11.23;4.47;;;0.60;88.00;;;;;;5114513;28;20020;-37
2021/04/07 00:21:48;;;;;;;11.27;4.47;;;0.60;87.70;;;;;;5113026;28;20360;-37
2021/04/07 00:24:14;;;;;;;16.75;5.45;;;0.80;86.90;;;;;;5114218;28;20093;-35
2021/04/07 00:26:40;;;;;;;16.42;5.22;;;0.80;87.00;;;;;;5114048;28;20015;-36
2021/04/07 00:29:05;;;;;;;13.23;4.45;;;0.80;87.20;;;;;;5112818;28;20055;-37
2021/04/07 00:31:31;;;;;;;12.77;5.68;;;0.50;88.30;;;;;;5114104;28;20024;-36
2021/04/07 00:33:57;;;;;;;18.17;4.47;;;0.30;89.70;;;;;;5114328;28;20051;-37
2021/04/07 00:36:22;;;;;;;12.35;4.68;;;0.30;90.80;;;;;;5114579;28;20110;-36
2021/04/07 00:38:48;;;;;;;12.25;3.85;;;0.20;90.40;;;;;;5112669;28;20031;-36
2021/04/07 00:41:13;;;;;;;8.48;2.50;;;0.20;89.40;;;;;;5113923;28;20019;-36
2021/04/07 00:43:39;;;;;;;13.40;3.38;;;0.30;88.50;;;;;;5112584;28;20051;-36
2021/04/07 00:46:05;;;;;;;9.77;3.25;;;0.30;88.00;;;;;;5113919;28;20463;-36
2021/04/07 00:48:31;;;;;;;22.73;3.40;;;0.40;87.70;;;;;;5112403;28;20028;-37
2021/04/07 00:50:57;;;;;;;15.57;4.97;;;0.40;86.80;;;;;;5114193;28;20034;-36
2021/04/07 00:53:23;;;;;;;8.13;3.50;;;0.40;87.20;;;;;;5112620;28;20023;-36
2021/04/07 00:55:49;;;;;;;8.18;3.30;;;0.30;87.00;;;;;;5114185;28;20106;-36
2021/04/07 00:58:15;;;;;;;9.15;3.67;;;0.40;87.10;;;;;;5113634;28;20072;-35
2021/04/07 01:00:41;;;;;;;11.93;4.05;;;0.30;87.00;;;;;;5112245;28;20015;-35
2021/04/07 01:03:11;;;;;;;7.28;3.10;;;0.30;87.40;;;;;;5113755;28;20024;-35
2021/04/07 01:05:36;;;;;;;6.25;3.00;;;0.30;87.10;;;;;;5113850;28;20016;-35
2021/04/07 01:08:02;;;;;;;9.15;3.80;;;0.50;86.60;;;;;;5112086;28;20027;-35
2021/04/07 01:10:28;;;;;;;12.85;4.05;;;0.50;86.90;;;;;;5113820;28;20047;-35
2021/04/07 01:12:54;;;;;;;8.00;4.38;;;0.50;87.30;;;;;;5113814;28;20468;-36
2021/04/07 01:15:20;;;;;;;10.02;4.00;;;0.60;87.50;;;;;;5114756;28;20471;-37
2021/04/07 01:17:47;;;;;;;7.70;3.40;;;0.50;87.80;;;;;;5117586;28;20023;-35
2021/04/07 01:20:15;;;;;;;9.20;4.38;;;0.40;87.80;;;;;;5117712;28;20426;-37
2021/04/07 01:22:41;;;;;;;14.93;4.13;;;0.50;88.10;;;;;;5117446;28;20024;-36
2021/04/07 01:25:11;;;;;;;11.57;4.05;;;0.50;88.10;;;;;;5117501;28;20023;-35
2021/04/07 01:27:38;;;;;;;15.85;5.32;;;0.50;88.00;;;;;;5117615;27;20024;-35
2021/04/07 01:30:10;;;;;;;20.92;4.80;;;0.50;87.90;;;;;;5117537;27;20020;-35
2021/04/07 01:32:37;;;;;;;11.77;4.60;;;0.40;87.80;;;;;;5117175;28;20080;-35
2021/04/07 01:35:04;;;;;;;15.75;4.55;;;0.50;87.60;;;;;;5117277;28;20024;-35
2021/04/07 01:37:34;;;;;;;5.78;3.90;;;0.60;87.30;;;;;;5117236;28;20073;-35
2021/04/07 01:40:00;;;;;;;12.88;4.63;;;0.50;86.90;;;;;;5117057;28;20023;-35
2021/04/07 01:42:27;;;;;;;16.65;5.15;;;0.60;87.10;;;;;;5115566;28;20020;-35
2021/04/07 01:44:54;;;;;;;11.40;4.70;;;0.50;87.40;;;;;;5117379;28;20072;-35
2021/04/07 01:47:19;;;;;;;18.27;5.72;;;0.50;87.10;;;;;;5117063;28;20039;-36
2021/04/07 01:49:45;;;;;;;15.13;5.88;;;0.60;87.00;;;;;;5116731;28;20044;-36
2021/04/07 01:52:11;;;;;;;11.77;6.43;;;0.60;86.80;;;;;;5116799;28;20031;-36
2021/04/07 01:54:37;;;;;;;15.52;6.45;;;0.50;86.90;;;;;;5116867;28;20031;-36
2021/04/07 01:57:02;;;;;;;15.70;5.93;;;0.50;87.20;;;;;;5117197;28;20028;-36
2021/04/07 01:59:30;;;;;;;10.13;4.93;;;0.50;87.20;;;;;;5115465;28;20042;-35
2021/04/07 02:01:57;;;;;;;13.95;6.30;;;0.70;86.80;;;;;;5117056;28;20051;-35
2021/04/07 02:04:23;;;;;;;16.60;5.50;;;0.50;87.10;;;;;;5117055;28;20028;-36
2021/04/07 02:06:49;;;;;;;12.43;5.05;;;0.50;87.10;;;;;;5116968;28;20026;-37
2021/04/07 02:09:17;;;;;;;8.27;4.28;;;0.60;87.10;;;;;;5116995;27;20114;-35
2021/04/07 02:11:48;;;;;;;15.70;4.47;;;0.50;87.20;;;;;;5116806;28;20058;-35
2021/04/07 02:14:21;;;;;;;13.48;4.05;;;0.60;87.10;;;;;;5116899;28;20024;-35
2021/04/07 02:17:03;;;;;;;10.68;3.85;;;0.50;87.20;;;;;;5116972;28;20090;-35
2021/04/07 02:19:30;;;;;;;8.73;4.18;;;0.60;86.80;;;;;;5116511;28;20027;-35
2021/04/07 02:22:13;;;;;;;24.02;5.93;;;0.70;86.60;;;;;;5116420;28;20035;-35
2021/04/07 02:24:49;;;;;;;7.25;3.05;;;0.60;86.10;;;;;;5116885;28;20019;-35
2021/04/07 02:27:18;;;;;;;8.93;3.42;;;0.50;86.70;;;;;;5116614;28;20081;-36
2021/04/07 02:29:47;;;;;;;12.52;3.50;;;0.60;86.70;;;;;;5116267;28;20031;-35
2021/04/07 02:32:13;;;;;;;9.90;3.15;;;0.50;86.90;;;;;;5117015;28;20103;-35
2021/04/07 02:34:40;;;;;;;6.70;3.33;;;0.50;86.90;;;;;;5116538;28;20035;-35
2021/04/07 02:37:06;;;;;;;10.38;4.22;;;0.60;87.00;;;;;;5116157;28;20138;-35
2021/04/07 02:39:31;;;;;;;7.25;3.38;;;0.70;86.70;;;;;;5116028;28;20027;-35
2021/04/07 02:41:57;;;;;;;14.50;3.95;;;0.60;86.40;;;;;;5114745;28;20506;-35
2021/04/07 02:44:23;;;;;;;9.25;4.25;;;0.70;86.80;;;;;;5116272;28;20350;-35
2021/04/07 02:46:49;;;;;;;11.52;4.20;;;0.70;86.40;;;;;;5116441;28;20094;-35
2021/04/07 02:49:15;;;;;;;7.53;4.47;;;0.50;86.80;;;;;;5115891;28;20499;-35
2021/04/07 02:51:41;;;;;;;10.55;5.10;;;0.50;87.00;;;;;;5115829;28;20023;-36
2021/04/07 02:54:09;;;;;;;10.18;4.57;;;0.50;87.20;;;;;;5115718;28;20510;-36
2021/04/07 02:56:35;;;;;;;8.95;4.25;;;0.50;87.00;;;;;;5116134;28;20054;-36
2021/04/07 02:59:01;;;;;;;12.65;5.40;;;0.50;87.10;;;;;;5114444;28;20027;-37
2021/04/07 03:01:27;;;;;;;18.05;5.03;;;0.50;87.20;;;;;;5115901;28;20068;-35
2021/04/07 03:03:52;;;;;;;17.58;4.93;;;0.50;87.20;;;;;;5115737;28;20035;-36
2021/04/07 03:06:18;;;;;;;19.13;8.93;;;0.70;86.80;;;;;;5114378;28;20095;-35
2021/04/07 03:08:44;;;;;;;14.30;6.15;;;0.70;86.90;;;;;;5116542;28;20035;-39
2021/04/07 03:11:10;;;;;;;14.15;6.43;;;0.80;86.70;;;;;;5115672;28;20028;-35
2021/04/07 03:13:37;;;;;;;19.95;6.32;;;0.70;86.90;;;;;;5115526;28;20028;-36
2021/04/07 03:16:03;;;;;;;19.63;8.25;;;0.70;87.00;;;;;;5115530;28;20042;-35
2021/04/07 03:18:28;;;;;;;18.77;9.15;;;0.80;87.10;;;;;;5115202;28;20042;-35
2021/04/07 03:20:54;;;;;;;16.90;9.70;;;0.70;87.20;;;;;;5115192;28;20399;-36
2021/04/07 03:23:20;;;;;;;19.73;9.60;;;0.70;87.20;;;;;;5115042;28;20030;-36
2021/04/07 03:25:45;;;;;;;23.48;9.52;;;0.50;87.40;;;;;;5115326;28;20414;-35
2021/04/07 03:28:11;;;;;;;27.45;10.38;;;0.50;87.70;;;;;;5115267;28;20046;-35
2021/04/07 03:30:49;;;;;;;24.90;9.70;;;0.60;87.50;;;;;;5115282;28;20020;-35
2021/04/07 03:33:23;;;;;;;26.00;9.52;;;0.60;87.50;;;;;;5115157;28;20119;-35
2021/04/07 03:35:50;;;;;;;16.52;9.90;;;0.70;87.60;;;;;;5113671;28;20106;-35
2021/04/07 03:38:16;;;;;;;19.27;11.10;;;0.60;87.50;;;;;;5113793;28;20035;-35
2021/04/07 03:40:42;;;;;;;26.50;9.75;;;0.70;87.60;;;;;;5115040;28;20467;-35
2021/04/07 03:43:10;;;;;;;22.45;9.48;;;0.80;87.30;;;;;;5114698;28;20062;-35
2021/04/07 03:45:37;;;;;;;20.83;10.88;;;0.80;87.50;;;;;;5114688;28;20019;-35
2021/04/07 03:48:04;;;;;;;17.88;9.80;;;0.70;87.50;;;;;;5114858;28;20031;-35
2021/04/07 03:50:30;;;;;;;15.90;9.98;;;0.70;87.70;;;;;;5114478;28;20499;-35
2021/04/07 03:52:55;;;;;;;18.83;10.52;;;0.80;87.60;;;;;;5114934;28;20030;-36
2021/04/07 03:55:21;;;;;;;17.17;9.80;;;0.80;87.70;;;;;;5114908;28;20023;-37
2021/04/07 03:57:46;;;;;;;20.45;9.70;;;0.80;87.50;;;;;;5114511;28;20027;-35
2021/04/07 04:00:13;;;;;;;20.38;8.98;;;0.80;87.50;;;;;;5114696;28;20471;-35
2021/04/07 04:02:39;;;;;;;13.18;9.07;;;0.80;87.70;;;;;;5114404;28;20080;-36
2021/04/07 04:05:05;;;;;;;10.98;7.95;;;0.90;87.10;;;;;;5113249;28;20023;-36
2021/04/07 04:07:31;;;;;;;15.73;9.23;;;0.90;87.00;;;;;;5113187;28;20034;-36
2021/04/07 04:09:56;;;;;;;22.08;8.95;;;0.90;87.40;;;;;;5113257;28;20379;-36
2021/04/07 04:12:22;;;;;;;15.82;9.55;;;1.00;87.20;;;;;;5113144;28;20032;-36
2021/04/07 04:14:48;;;;;;;13.27;9.45;;;1.00;87.00;;;;;;5114397;28;20027;-36
2021/04/07 04:17:14;;;;;;;22.35;10.10;;;1.00;87.00;;;;;;5113004;28;20030;-36
2021/04/07 04:19:39;;;;;;;20.40;9.90;;;1.00;87.20;;;;;;5114896;28;20020;-36
2021/04/07 04:22:05;;;;;;;23.40;12.85;;;1.00;87.30;;;;;;5113105;28;20031;-36
2021/04/07 04:24:31;;;;;;;12.70;9.57;;;1.00;87.40;;;;;;5112864;28;20022;-36
2021/04/07 04:26:57;;;;;;;17.88;8.90;;;1.00;87.40;;;;;;5114043;28;20035;-36
2021/04/07 04:29:23;;;;;;;13.95;10.10;;;1.00;87.40;;;;;;5114047;28;20073;-35
2021/04/07 04:31:48;;;;;;;16.95;11.20;;;0.90;87.60;;;;;;5113808;28;20024;-35
2021/04/07 04:34:14;;;;;;;21.88;13.15;;;0.90;88.00;;;;;;5113899;28;20059;-35
2021/04/07 04:36:40;;;;;;;28.80;13.38;;;0.80;88.30;;;;;;5113915;28;20020;-35
2021/04/07 04:39:05;;;;;;;28.00;13.63;;;0.90;88.30;;;;;;5112540;28;20028;-35
2021/04/07 04:41:31;;;;;;;22.85;14.38;;;1.00;88.10;;;;;;5114187;28;20020;-36
2021/04/07 04:43:56;;;;;;;24.20;14.70;;;0.80;88.40;;;;;;5113752;28;20055;-36
2021/04/07 04:46:22;;;;;;;23.00;14.80;;;1.00;88.10;;;;;;5113981;28;20024;-36
2021/04/07 04:48:48;;;;;;;21.85;12.98;;;0.90;88.30;;;;;;5112184;28;20395;-37
2021/04/07 04:51:14;;;;;;;22.98;14.60;;;0.90;88.20;;;;;;5112581;28;20467;-36
2021/04/07 04:53:39;;;;;;;22.15;16.05;;;0.90;88.40;;;;;;5112943;28;20031;-36
2021/04/07 04:56:05;;;;;;;25.80;16.17;;;0.90;88.90;;;;;;5112686;28;20035;-34
2021/04/07 04:58:31;;;;;;;27.50;13.88;;;0.90;89.80;;;;;;5112407;28;20055;-37
2021/04/07 05:00:58;;;;;;;27.38;16.10;;;0.80;90.70;;;;;;5113701;28;20108;-36
2021/04/07 05:03:23;;;;;;;30.88;16.75;;;0.80;91.10;;;;;;5113750;28;20027;-36
2021/04/07 05:05:49;;;;;;;31.23;16.15;;;0.70;91.30;;;;;;5112485;28;20410;-36
2021/04/07 05:08:15;;;;;;;30.33;17.83;;;0.70;91.40;;;;;;5113737;28;20114;-36
2021/04/07 05:10:40;;;;;;;35.35;19.40;;;0.80;91.40;;;;;;5112444;28;20456;-36
2021/04/07 05:13:06;;;;;;;39.72;21.00;;;0.80;91.40;;;;;;5113971;28;20054;-36
2021/04/07 05:15:32;;;;;;;36.83;20.52;;;0.80;91.30;;;;;;5113442;28;20063;-35
2021/04/07 05:18:00;;;;;;;44.45;20.35;;;0.80;91.60;;;;;;5113384;28;20020;-36
2021/04/07 05:20:26;;;;;;;38.58;22.63;;;0.80;91.70;;;;;;5113772;28;20047;-36
2021/04/07 05:22:51;;;;;;;40.13;21.98;;;0.80;91.40;;;;;;5113436;28;20051;-36
2021/04/07 05:25:17;;;;;;;31.85;17.58;;;0.80;91.50;;;;;;5113472;28;20483;-37
2021/04/07 05:27:43;;;;;;;47.33;24.70;;;0.80;91.80;;;;;;5113264;28;20038;-36
2021/04/07 05:30:09;;;;;;;43.85;23.58;;;0.80;92.10;;;;;;5113430;28;20076;-37
2021/04/07 05:32:35;;;;;;;34.45;17.92;;;0.80;92.10;;;;;;5113368;28;20024;-37
2021/04/07 05:35:01;;;;;;;45.03;23.55;;;0.70;92.20;;;;;;5113677;28;20371;-36
2021/04/07 05:37:26;;;;;;;44.47;22.10;;;0.70;92.20;;;;;;5113218;28;20032;-38
2021/04/07 05:39:52;;;;;;;46.30;23.20;;;0.70;92.20;;;;;;5113399;28;20054;-38
2021/04/07 05:42:18;;;;;;;40.58;21.30;;;0.70;92.10;;;;;;5113191;28;20058;-36
2021/04/07 05:44:43;;;;;;;36.20;21.13;;;0.60;92.00;;;;;;5111990;28;20073;-36
2021/04/07 05:47:09;;;;;;;18.27;10.77;;;0.80;92.20;;;;;;5113292;28;20051;-36
2021/04/07 05:49:35;;;;;;;39.92;20.48;;;0.70;92.00;;;;;;5113234;28;20064;-36
2021/04/07 05:52:00;;;;;;;36.45;21.75;;;0.80;91.80;;;;;;5113178;28;20031;-36
2021/04/07 05:54:26;;;;;;;31.95;18.80;;;0.60;92.40;;;;;;5113301;28;20510;-37
2021/04/07 05:56:52;;;;;;;24.67;13.32;;;0.60;92.40;;;;;;5112820;28;20024;-35
2021/04/07 05:59:17;;;;;;;40.75;21.55;;;0.70;92.50;;;;;;5113067;28;20020;-36
2021/04/07 06:01:43;;;;;;;39.33;21.15;;;0.70;92.30;;;;;;5115751;28;20028;-38
2021/04/07 06:04:09;;;;;;;45.17;24.20;;;0.60;92.60;;;;;;5116733;28;20027;-36
2021/04/07 06:06:34;;;;;;;41.95;23.63;;;0.70;92.30;;;;;;5116453;28;20042;-37
2021/04/07 06:09:00;;;;;;;53.65;26.23;;;0.70;92.30;;;;;;5115599;28;20440;-37
2021/04/07 06:11:26;;;;;;;47.15;22.40;;;0.60;92.40;;;;;;5116495;28;20487;-37
2021/04/07 06:13:51;;;;;;;44.47;22.45;;;0.70;92.40;;;;;;5117050;28;20043;-37
2021/04/07 06:16:17;;;;;;;39.92;20.38;;;0.80;92.30;;;;;;5116835;28;20032;-34
2021/04/07 06:18:43;;;;;;;42.22;21.55;;;0.80;92.50;;;;;;5116759;27;20015;-38
2021/04/07 06:21:09;;;;;;;33.45;19.08;;;0.70;92.60;;;;;;5116298;28;20429;-37
2021/04/07 06:23:35;;;;;;;38.38;21.63;;;0.70;92.40;;;;;;5116587;28;20076;-37
2021/04/07 06:26:01;;;;;;;45.40;21.63;;;0.70;92.60;;;;;;5116204;28;20028;-36
2021/04/07 06:28:26;;;;;;;48.67;22.08;;;0.70;92.80;;;;;;5116601;28;20020;-38
2021/04/07 06:30:52;;;;;;;32.10;17.55;;;0.60;92.90;;;;;;5116775;28;20101;-37
2021/04/07 06:33:27;;;;;;;39.58;17.42;;;0.70;92.80;;;;;;5116278;28;20023;-37
2021/04/07 06:35:57;;;;;;;37.83;21.17;;;0.70;92.60;;;;;;5116528;28;20032;-36
2021/04/07 06:38:23;;;;;;;28.25;16.15;;;0.80;92.60;;;;;;5116102;28;20054;-35
2021/04/07 06:40:49;;;;;;;33.47;18.75;;;0.80;92.20;;;;;;5116440;28;20421;-35
2021/04/07 06:43:21;;;;;;;34.78;19.52;;;0.80;92.20;;;;;;5115853;28;20035;-35
2021/04/07 06:45:46;;;;;;;27.58;15.50;;;0.80;92.30;;;;;;5115904;28;20475;-34
2021/04/07 06:48:14;;;;;;;33.70;18.15;;;0.80;92.10;;;;;;5115865;28;20054;-35
2021/04/07 06:50:40;;;;;;;31.13;16.60;;;0.90;92.10;;;;;;5114115;28;20406;-34
2021/04/07 06:53:08;;;;;;;28.75;17.02;;;0.80;92.20;;;;;;5115901;28;20027;-34
2021/04/07 06:55:34;;;;;;;23.33;16.42;;;0.80;92.30;;;;;;5115603;28;20034;-35
2021/04/07 06:58:05;;;;;;;29.67;16.27;;;0.80;92.50;;;;;;5115149;28;20100;-35
2021/04/07 07:00:31;;;;;;;24.42;13.18;;;0.80;92.30;;;;;;5115111;28;20024;-35
2021/04/07 07:03:08;;;;;;;26.52;16.98;;;0.80;92.40;;;;;;5115346;28;20047;-37
2021/04/07 07:05:36;;;;;;;29.98;16.13;;;0.90;92.00;;;;;;5115452;28;20047;-35
2021/04/07 07:08:05;;;;;;;29.05;17.48;;;0.90;92.10;;;;;;5115583;28;20356;-35
2021/04/07 07:10:45;;;;;;;27.98;17.60;;;1.00;92.00;;;;;;5115206;28;20046;-36
2021/04/07 07:13:21;;;;;;;27.35;15.40;;;1.00;91.60;;;;;;5115198;28;20026;-35
2021/04/07 07:15:48;;;;;;;17.35;11.10;;;1.00;91.70;;;;;;5115162;28;20036;-36
2021/04/07 07:18:20;;;;;;;25.85;16.73;;;1.10;91.10;;;;;;5113379;28;20024;-36
2021/04/07 07:20:46;;;;;;;25.60;15.95;;;1.10;90.80;;;;;;5114727;28;20027;-36
2021/04/07 07:23:23;;;;;;;25.50;16.27;;;1.30;91.00;;;;;;5113403;28;20414;-37
2021/04/07 07:25:59;;;;;;;19.80;13.23;;;1.20;90.80;;;;;;5114741;28;20082;-36
2021/04/07 07:28:26;;;;;;;22.58;13.25;;;1.30;90.60;;;;;;5114527;28;20057;-36
2021/04/07 07:30:52;;;;;;;24.15;14.50;;;1.20;90.50;;;;;;5112702;28;20090;-37
2021/04/07 07:33:20;;;;;;;24.95;14.82;;;1.30;90.30;;;;;;5114651;28;20047;-36
2021/04/07 07:35:48;;;;;;;22.65;13.18;;;1.30;90.20;;;;;;5114371;28;20059;-36
2021/04/07 07:38:26;;;;;;;18.35;12.98;;;1.30;89.90;;;;;;5114425;28;20019;-36
2021/04/07 07:41:08;;;;;;;24.58;13.02;;;1.40;89.80;;;;;;5114291;28;20032;-36
2021/04/07 07:43:34;;;;;;;21.48;13.18;;;1.30;90.00;;;;;;5114676;28;20479;-35
2021/04/07 07:46:15;;;;;;;14.02;10.50;;;1.40;90.10;;;;;;5114263;28;20078;-35
2021/04/07 07:48:42;;;;;;;16.23;11.05;;;1.60;89.00;;;;;;5114503;28;20101;-36
2021/04/07 07:51:22;;;;;;;17.15;11.13;;;1.50;89.40;;;;;;5114463;28;20034;-36
2021/04/07 07:53:50;;;;;;;17.75;12.20;;;1.60;89.50;;;;;;5113521;28;20027;-36
2021/04/07 07:56:17;;;;;;;15.48;11.38;;;1.60;89.30;;;;;;5114028;28;20106;-36
2021/04/07 07:58:45;;;;;;;17.52;12.30;;;1.40;89.80;;;;;;5114246;28;20348;-37
2021/04/07 08:01:14;;;;;;;18.98;11.55;;;1.40;90.30;;;;;;5114358;28;20429;-36
2021/04/07 08:03:40;;;;;;;21.17;12.15;;;1.40;90.30;;;;;;5114715;28;20103;-35
2021/04/07 08:06:06;;;;;;;22.98;13.88;;;1.40;89.90;;;;;;5114390;28;20026;-37
2021/04/07 08:08:32;;;;;;;26.65;15.23;;;1.50;89.90;;;;;;5112818;28;20467;-36
2021/04/07 08:10:57;;;;;;;24.35;15.50;;;1.50;90.10;;;;;;5113798;28;20023;-35
2021/04/07 08:13:34;;;;;;;19.02;12.13;;;1.60;90.10;;;;;;5114017;28;20031;-37
2021/04/07 08:16:00;;;;;;;15.30;10.27;;;1.50;90.10;;;;;;5114031;28;20019;-35
2021/04/07 08:18:26;;;;;;;15.60;10.52;;;1.50;90.00;;;;;;5113404;28;20059;-37
2021/04/07 08:20:52;;;;;;;15.38;10.88;;;1.50;90.00;;;;;;5113650;28;20026;-37
2021/04/07 08:23:20;;;;;;;12.85;9.15;;;1.70;89.60;;;;;;5113299;28;20015;-36
2021/04/07 08:25:51;;;;;;;16.77;9.95;;;1.80;89.00;;;;;;5113425;28;20027;-35
2021/04/07 08:28:17;;;;;;;15.93;9.25;;;1.80;89.00;;;;;;5113850;28;20363;-36
2021/04/07 08:30:44;;;;;;;9.80;6.68;;;1.80;89.30;;;;;;5113446;28;20028;-36
2021/04/07 08:33:10;;;;;;;5.85;5.25;;;1.90;88.90;;;;;;5113670;28;20020;-36
2021/04/07 08:35:35;;;;;;;7.70;5.03;;;1.90;89.10;;;;;;5113855;28;20362;-35
2021/04/07 08:38:04;;;;;;;6.07;3.92;;;1.90;89.40;;;;;;5113165;28;20098;-36
2021/04/07 08:40:45;;;;;;;9.18;6.72;;;1.80;89.10;;;;;;5113263;28;20031;-36
2021/04/07 08:43:13;;;;;;;8.13;5.90;;;2.00;88.90;;;;;;5113378;28;20367;-36
2021/04/07 08:45:46;;;;;;;9.52;7.38;;;1.90;89.50;;;;;;5112678;28;20176;-35
2021/04/07 08:48:22;;;;;;;10.68;7.65;;;1.90;89.60;;;;;;5113030;28;20015;-35
2021/04/07 08:51:03;;;;;;;10.63;8.05;;;2.10;89.30;;;;;;5113308;28;20043;-37
2021/04/07 08:53:36;;;;;;;16.17;9.07;;;2.20;89.00;;;;;;5113390;28;20043;-36
2021/04/07 08:56:11;;;;;;;12.95;9.27;;;2.00;89.60;;;;;;5113413;28;20497;-36
2021/04/07 08:58:56;;;;;;;12.85;9.45;;;2.10;89.40;;;;;;5113141;28;20389;-36
2021/04/07 09:01:32;;;;;;;12.75;9.52;;;2.10;89.50;;;;;;5113431;28;20020;-36
2021/04/07 09:04:05;;;;;;;12.07;9.77;;;2.20;89.60;;;;;;5113675;28;20102;-36
2021/04/07 09:06:31;;;;;;;15.45;10.45;;;2.30;89.60;;;;;;5112963;28;20361;-36
2021/04/07 09:08:57;;;;;;;13.25;8.75;;;2.30;89.60;;;;;;5112871;28;20058;-37
2021/04/07 09:11:37;;;;;;;14.18;9.25;;;2.60;88.70;;;;;;5113380;28;20024;-36
2021/04/07 09:14:04;;;;;;;12.77;10.57;;;2.80;88.40;;;;;;5113109;28;20031;-37
2021/04/07 09:16:38;;;;;;;13.90;9.80;;;3.00;87.80;;;;;;5111565;28;20055;-36
2021/04/07 09:19:21;;;;;;;14.25;10.63;;;3.00;88.00;;;;;;5112696;28;20043;-37
2021/04/07 09:21:56;;;;;;;12.88;9.98;;;3.10;87.20;;;;;;5112983;28;20035;-37
2021/04/07 09:24:29;;;;;;;18.23;11.38;;;3.20;87.80;;;;;;5112928;28;20510;-36
2021/04/07 09:26:57;;;;;;;12.73;9.80;;;3.10;87.80;;;;;;5112902;28;20099;-36
2021/04/07 09:29:23;;;;;;;17.10;11.50;;;3.00;88.70;;;;;;5112969;28;20039;-36
2021/04/07 09:31:50;;;;;;;15.45;10.60;;;3.10;88.30;;;;;;5113340;28;20020;-36
2021/04/07 09:34:17;;;;;;;14.23;11.18;;;3.20;88.10;;;;;;5111461;28;20019;-35
2021/04/07 09:36:45;;;;;;;19.00;12.68;;;3.20;88.10;;;;;;5116652;28;20023;-36
2021/04/07 09:39:17;;;;;;;20.23;13.55;;;3.20;88.60;;;;;;5116957;28;20020;-37
2021/04/07 09:41:44;;;;;;;19.83;13.88;;;3.30;88.30;;;;;;5116995;28;20031;-36
2021/04/07 09:44:15;;;;;;;23.15;15.25;;;3.30;88.70;;;;;;5116446;28;20080;-36
2021/04/07 09:46:41;;;;;;;24.90;15.27;;;3.20;89.00;;;;;;5116783;28;20065;-35
2021/04/07 09:49:11;;;;;;;24.35;14.80;;;3.20;89.00;;;;;;5116250;28;20443;-35
2021/04/07 09:51:40;;;;;;;19.98;13.93;;;3.30;88.80;;;;;;5116949;28;20027;-38
2021/04/07 09:54:25;;;;;;;16.98;13.13;;;3.30;88.80;;;;;;5116851;28;20471;-37
2021/04/07 09:56:54;;;;;;;20.73;13.20;;;3.30;89.20;;;;;;5116322;28;20096;-37
2021/04/07 09:59:32;;;;;;;19.30;13.05;;;3.20;89.30;;;;;;5116248;28;20079;-36
2021/04/07 10:01:58;;;;;;;18.38;12.65;;;3.20;89.60;;;;;;5116618;28;20110;-38
2021/04/07 10:04:32;;;;;;;19.92;13.43;;;3.30;89.00;;;;;;5116299;28;20120;-36
2021/04/07 10:07:20;;;;;;;18.17;12.95;;;3.10;90.10;;;;;;5116605;28;20040;-36
2021/04/07 10:09:48;;;;;;;20.52;14.35;;;3.30;89.90;;;;;;5116393;28;20038;-36
2021/04/07 10:12:19;;;;;;;17.48;13.20;;;3.20;90.00;;;;;;5116180;28;20024;-36
2021/04/07 10:14:48;;;;;;;15.90;11.13;;;3.20;90.50;;;;;;5116119;28;20027;-36
2021/04/07 10:17:19;;;;;;;18.80;12.98;;;3.30;90.50;;;;;;5115785;28;20026;-35
2021/04/07 10:19:46;;;;;;;19.23;12.77;;;3.20;90.90;;;;;;5115759;28;20031;-35
2021/04/07 10:22:18;;;;;;;16.67;10.75;;;3.30;91.10;;;;;;5116477;28;20375;-37
2021/04/07 10:24:46;;;;;;;18.80;11.95;;;3.30;90.50;;;;;;5115770;28;20137;-36
2021/04/07 10:27:22;;;;;;;17.17;11.93;;;3.50;91.00;;;;;;5115522;28;20023;-36
2021/04/07 10:30:00;;;;;;;16.60;13.02;;;3.50;90.40;;;;;;5116059;28;20023;-36
2021/04/07 10:32:27;;;;;;;17.27;12.32;;;3.60;90.60;;;;;;5115525;28;20464;-37
2021/04/07 10:35:00;;;;;;;18.92;13.32;;;3.70;90.80;;;;;;5116105;28;20019;-36
2021/04/07 10:37:26;;;;;;;14.00;11.38;;;3.90;90.30;;;;;;5115993;28;20039;-39
2021/04/07 10:39:51;;;;;;;16.02;10.05;;;3.90;90.40;;;;;;5115435;28;20059;-35
2021/04/07 10:42:19;;;;;;;16.20;12.18;;;3.90;90.50;;;;;;5115364;28;20024;-35
2021/04/07 10:44:56;;;;;;;17.17;10.80;;;3.90;90.80;;;;;;5115744;28;20027;-36
2021/04/07 10:47:22;;;;;;;13.35;9.55;;;4.30;90.20;;;;;;5114055;28;20027;-37
2021/04/07 10:49:56;;;;;;;10.88;8.05;;;4.50;88.80;;;;;;5114887;28;20149;-35
2021/04/07 10:52:40;;;;;;;8.20;5.80;;;4.70;89.20;;;;;;5115317;28;20020;-37
2021/04/07 10:55:27;;;;;;;6.53;4.38;;;5.10;87.60;;;;;;5113828;28;20026;-36
2021/04/07 10:57:55;;;;;;;4.57;2.92;;;5.50;86.10;;;;;;5115290;28;20133;-38
2021/04/07 11:00:37;;;;;;;10.73;3.05;;;5.80;85.20;;;;;;5115610;28;20020;-37
2021/04/07 11:03:04;;;;;;;5.22;2.22;;;6.00;85.20;;;;;;5115137;28;20102;-36
2021/04/07 11:05:43;;;;;;;8.52;1.90;;;6.30;83.80;;;;;;5114969;28;20055;-36
2021/04/07 11:08:12;;;;;;;7.97;2.10;;;5.70;85.00;;;;;;5115584;28;20027;-35
2021/04/07 11:10:49;;;;;;;11.43;2.88;;;5.50;84.80;;;;;;5115565;28;20506;-36
2021/04/07 11:13:18;;;;;;;7.50;2.22;;;5.80;85.40;;;;;;5115420;27;20115;-36
2021/04/07 11:15:43;;;;;;;2.88;1.17;;;5.80;85.30;;;;;;5114919;28;20072;-36
2021/04/07 11:18:09;;;;;;;7.28;1.83;;;5.30;84.10;;;;;;5114866;28;20023;-36
2021/04/07 11:20:37;;;;;;;7.35;2.15;;;5.20;84.70;;;;;;5115016;28;20019;-36
2021/04/07 11:23:03;;;;;;;13.27;2.13;;;5.10;84.50;;;;;;5114715;28;20092;-36
2021/04/07 11:25:29;;;;;;;18.52;3.17;;;5.30;83.10;;;;;;5115913;28;20024;-36
2021/04/07 11:27:58;;;;;;;16.67;4.03;;;5.30;82.70;;;;;;5115225;28;20114;-36
2021/04/07 11:30:26;;;;;;;14.52;3.30;;;5.50;82.60;;;;;;5115158;28;20412;-36
2021/04/07 11:32:56;;;;;;;22.50;3.63;;;6.00;81.30;;;;;;5114200;28;20031;-35
2021/04/07 11:38:03;;;;;;;16.63;3.38;;;6.80;77.40;;;;;;5114674;28;20161;-36
2021/04/07 11:43:06;;;;;;;14.45;3.40;;;7.30;76.20;;;;;;5114832;28;20104;-35
2021/04/07 11:45:32;;;;;;;7.93;2.05;;;7.00;77.30;;;;;;5112977;28;20108;-36
2021/04/07 11:47:57;;;;;;;8.70;2.63;;;6.40;79.40;;;;;;5113107;28;20028;-35
2021/04/07 11:50:23;;;;;;;7.65;1.85;;;5.90;80.70;;;;;;5114294;28;20054;-36
2021/04/07 11:52:49;;;;;;;9.20;1.45;;;5.50;82.50;;;;;;5114224;28;20072;-36
2021/04/07 11:55:15;;;;;;;7.07;1.55;;;5.30;83.00;;;;;;5114103;28;20109;-37
2021/04/07 11:57:40;;;;;;;11.23;2.67;;;4.90;84.60;;;;;;5113433;28;20028;-36
2021/04/07 12:00:08;;;;;;;13.57;3.17;;;4.70;84.50;;;;;;5112552;28;20031;-36
2021/04/07 12:02:36;;;;;;;12.30;2.22;;;4.70;84.90;;;;;;5113846;28;20027;-36
2021/04/07 12:05:02;;;;;;;11.38;3.25;;;5.20;82.90;;;;;;5114806;28;20464;-35
2021/04/07 12:07:28;;;;;;;15.02;2.20;;;6.10;80.50;;;;;;5113995;28;20016;-36
2021/04/07 12:09:53;;;;;;;16.58;3.85;;;7.00;79.10;;;;;;5114450;28;20015;-37
2021/04/07 12:12:19;;;;;;;14.40;3.33;;;7.80;76.10;;;;;;5114218;28;20020;-37
2021/04/07 12:14:45;;;;;;;10.75;3.10;;;8.30;74.40;;;;;;5114095;28;20361;-37
2021/04/07 12:17:10;;;;;;;11.98;3.00;;;7.50;76.70;;;;;;5115195;28;20437;-36
2021/04/07 12:19:36;;;;;;;10.00;1.75;;;6.90;79.30;;;;;;5114160;27;20027;-36
2021/04/07 12:22:02;;;;;;;6.80;1.67;;;6.20;79.70;;;;;;5113706;28;20055;-37
2021/04/07 12:24:29;;;;;;;7.57;1.80;;;6.00;80.90;;;;;;5113637;28;20072;-37
2021/04/07 12:26:56;;;;;;;11.10;1.67;;;5.90;82.60;;;;;;5114206;28;20024;-36
2021/04/07 12:29:22;;;;;;;11.38;1.67;;;5.90;82.00;;;;;;5114036;28;20046;-37
2021/04/07 12:31:48;;;;;;;3.83;1.25;;;6.50;81.40;;;;;;5114121;28;20031;-36
2021/04/07 12:34:14;;;;;;;8.18;1.80;;;6.80;80.80;;;;;;5114294;28;20027;-37
2021/04/07 12:36:40;;;;;;;4.55;1.30;;;7.20;79.60;;;;;;5113606;28;20034;-37
2021/04/07 12:39:06;;;;;;;6.93;1.75;;;6.80;78.30;;;;;;5113398;28;20107;-37
2021/04/07 12:41:35;;;;;;;11.35;2.00;;;6.70;77.90;;;;;;5113710;28;20031;-37
2021/04/07 12:44:02;;;;;;;18.58;3.03;;;6.60;79.00;;;;;;5113816;28;20099;-37
2021/04/07 12:46:27;;;;;;;8.02;2.20;;;6.50;79.20;;;;;;5113643;28;20116;-35
2021/04/07 12:48:53;;;;;;;17.73;3.53;;;6.50;79.70;;;;;;5113615;28;20122;-36
2021/04/07 12:51:21;;;;;;;12.43;2.95;;;6.30;78.70;;;;;;5114453;28;20114;-36
2021/04/07 12:53:48;;;;;;;11.30;2.88;;;6.10;78.10;;;;;;5113695;28;20108;-36